createdAt,value
2022-08-01T00:02:01.151Z,85.80
2022-08-01T00:05:02.059Z,85.90
2022-08-01T00:08:03.228Z,86.00
2022-08-01T00:11:04.067Z,86.20
2022-08-01T00:14:05.105Z,86.40
2022-08-01T00:17:07.565Z,86.60
2022-08-01T00:20:08.120Z,86.60
2022-08-01T00:23:09.221Z,86.80
2022-08-01T00:26:10.126Z,86.80
2022-08-01T00:29:11.082Z,86.90
2022-08-01T00:32:32.133Z,86.90
2022-08-01T00:35:33.076Z,86.90
2022-08-01T00:38:34.076Z,87.00
2022-08-01T00:41:35.160Z,87.10
2022-08-01T00:44:39.071Z,87.30
2022-08-01T00:47:41.185Z,87.40
2022-08-01T00:50:42.082Z,87.40
2022-08-01T00:53:52.006Z,87.50
2022-08-01T00:56:53.073Z,87.50
2022-08-01T00:59:56.072Z,87.50
2022-08-01T01:02:57.146Z,87.50
2022-08-01T01:06:31.083Z,87.70
2022-08-01T01:09:41.149Z,87.90
2022-08-01T01:13:12.209Z,88.00
2022-08-01T01:16:16.086Z,88.10
2022-08-01T01:19:20.092Z,88.10
2022-08-01T01:22:40.147Z,88.10
2022-08-01T01:25:53.156Z,88.20
2022-08-01T01:29:09.084Z,88.40
2022-08-01T01:32:31.005Z,88.40
2022-08-01T01:35:39.156Z,88.40
2022-08-01T01:38:46.082Z,88.40
2022-08-01T01:41:50.119Z,88.60
2022-08-01T01:44:52.156Z,88.70
2022-08-01T01:47:54.130Z,88.80
2022-08-01T01:50:57.159Z,88.80
2022-08-01T01:53:59.113Z,88.70
2022-08-01T01:57:01.172Z,88.70
2022-08-01T02:00:04.156Z,88.80
2022-08-01T02:03:08.222Z,88.90
2022-08-01T02:06:11.330Z,89.00
2022-08-01T02:09:16.097Z,89.10
2022-08-01T02:12:19.179Z,89.20
2022-08-01T02:15:21.184Z,89.20
2022-08-01T02:18:24.143Z,89.30
2022-08-01T02:21:30.141Z,89.40
2022-08-01T02:24:36.194Z,89.20
2022-08-01T02:27:48.189Z,89.20
2022-08-01T02:30:51.157Z,89.30
2022-08-01T02:33:56.224Z,89.40
2022-08-01T02:37:00.189Z,89.50
2022-08-01T02:40:07.292Z,89.50
2022-08-01T02:43:15.138Z,89.50
2022-08-01T02:46:19.143Z,89.50
2022-08-01T02:49:23.227Z,89.50
2022-08-01T02:52:28.148Z,89.50
2022-08-01T02:55:30.188Z,89.60
2022-08-01T02:58:34.445Z,89.60
2022-08-01T03:01:36.247Z,89.70
2022-08-01T03:04:39.167Z,89.80
2022-08-01T03:07:43.162Z,89.80
2022-08-01T03:10:46.150Z,89.70
2022-08-01T03:13:48.164Z,89.80
2022-08-01T03:16:52.160Z,89.90
2022-08-01T03:19:54.294Z,89.90
2022-08-01T03:23:00.204Z,90.00
2022-08-01T03:26:03.230Z,90.10
2022-08-01T03:29:07.205Z,90.10
2022-08-01T03:32:08.580Z,90.10
2022-08-01T03:35:09.160Z,90.10
2022-08-01T03:38:16.259Z,90.20
2022-08-01T03:41:34.213Z,90.20
2022-08-01T03:44:39.187Z,90.30
2022-08-01T03:47:45.159Z,90.20
2022-08-01T03:50:48.173Z,90.10
2022-08-01T03:53:51.156Z,90.10
2022-08-01T03:56:53.228Z,90.20
2022-08-01T03:59:54.268Z,90.30
2022-08-01T04:02:49.282Z,90.30
2022-08-01T04:05:43.169Z,90.30
2022-08-01T04:09:03.243Z,90.30
2022-08-01T04:12:12.449Z,90.40
2022-08-01T04:15:13.217Z,90.40
2022-08-01T04:18:14.187Z,90.40
2022-08-01T04:21:15.153Z,90.40
2022-08-01T04:24:23.335Z,90.40
2022-08-01T04:27:50.612Z,90.40
2022-08-01T04:30:52.239Z,90.50
2022-08-01T04:34:00.248Z,90.40
2022-08-01T04:37:03.200Z,90.40
2022-08-01T04:40:07.183Z,90.40
2022-08-01T04:43:08.197Z,90.40
2022-08-01T04:46:11.341Z,90.50
2022-08-01T04:49:13.229Z,90.50
2022-08-01T04:52:18.868Z,90.50
2022-08-01T04:55:21.261Z,90.60
2022-08-01T04:58:25.247Z,90.60
2022-08-01T05:01:27.341Z,90.60
2022-08-01T05:04:28.257Z,90.60
2022-08-01T05:07:29.272Z,90.60
2022-08-01T05:10:30.264Z,90.60
2022-08-01T05:13:31.390Z,90.60
2022-08-01T05:16:32.272Z,90.60
2022-08-01T05:19:33.200Z,90.60
2022-08-01T05:22:34.208Z,90.40
2022-08-01T05:25:57.477Z,90.40
2022-08-01T05:28:57.285Z,90.50
2022-08-01T05:31:58.281Z,90.60
2022-08-01T05:34:59.260Z,90.60
2022-08-01T05:38:00.209Z,90.60
2022-08-01T05:41:01.433Z,90.50
2022-08-01T05:44:02.219Z,90.50
2022-08-01T05:47:03.312Z,90.50
2022-08-01T05:50:04.227Z,90.40
2022-08-01T05:53:05.239Z,90.40
2022-08-01T05:56:06.313Z,90.40
2022-08-01T05:59:07.377Z,90.40
2022-08-01T06:02:08.790Z,90.40
2022-08-01T06:05:13.005Z,90.40
2022-08-01T06:08:14.228Z,90.30
2022-08-01T06:11:15.215Z,90.20
2022-08-01T06:14:16.280Z,90.20
2022-08-01T06:17:17.228Z,90.10
2022-08-01T06:20:20.239Z,90.00
2022-08-01T06:23:31.782Z,89.90
2022-08-01T06:26:34.262Z,89.70
2022-08-01T06:29:35.298Z,89.50
2022-08-01T06:32:37.244Z,89.40
2022-08-01T06:35:38.282Z,89.30
2022-08-01T06:38:39.249Z,89.10
2022-08-01T06:41:40.297Z,89.10
2022-08-01T06:44:41.451Z,88.90
2022-08-01T06:47:42.315Z,88.80
2022-08-01T06:50:44.239Z,88.70
2022-08-01T06:53:45.303Z,88.60
2022-08-01T06:56:46.311Z,88.50
2022-08-01T06:59:54.167Z,88.50
2022-08-01T07:02:55.249Z,88.40
2022-08-01T07:05:56.280Z,88.40
2022-08-01T07:08:58.753Z,88.40
2022-08-01T07:12:02.452Z,88.50
2022-08-01T07:15:03.280Z,88.20
2022-08-01T07:18:04.280Z,87.70
2022-08-01T07:21:05.447Z,87.00
2022-08-01T07:24:12.985Z,86.00
2022-08-01T07:27:21.305Z,85.10
2022-08-01T07:30:25.272Z,84.10
2022-08-01T07:33:27.356Z,82.50
2022-08-01T07:36:48.320Z,81.30
2022-08-01T07:39:49.334Z,80.30
2022-08-01T07:42:51.360Z,79.30
2022-08-01T07:45:52.353Z,77.60
2022-08-01T07:48:53.370Z,77.30
2022-08-01T07:52:03.391Z,76.90
2022-08-01T07:55:05.346Z,75.80
2022-08-01T07:58:07.384Z,74.30
2022-08-01T08:01:08.293Z,73.90
2022-08-01T08:04:09.480Z,73.50
2022-08-01T08:07:10.431Z,72.90
2022-08-01T08:10:11.370Z,72.10
2022-08-01T08:13:12.344Z,70.00
2022-08-01T08:16:14.283Z,68.80
2022-08-01T08:19:15.304Z,68.60
2022-08-01T08:22:16.302Z,68.20
2022-08-01T08:25:17.368Z,67.70
2022-08-01T08:28:18.446Z,67.00
2022-08-01T08:31:25.010Z,66.00
2022-08-01T08:34:42.454Z,63.70
2022-08-01T08:37:47.734Z,63.60
2022-08-01T08:40:51.314Z,62.90
2022-08-01T08:43:52.493Z,62.00
2022-08-01T08:47:00.318Z,60.90
2022-08-01T08:50:01.504Z,59.90
2022-08-01T08:53:06.451Z,59.40
2022-08-01T08:56:09.429Z,57.50
2022-08-01T08:59:43.393Z,55.80
2022-08-01T09:02:48.442Z,54.90
2022-08-01T09:05:49.393Z,55.50
2022-08-01T09:08:53.426Z,56.20
2022-08-01T09:11:57.388Z,56.20
2022-08-01T09:15:02.361Z,56.20
2022-08-01T09:18:04.426Z,55.90
2022-08-01T09:21:06.428Z,55.70
2022-08-01T09:24:13.456Z,56.00
2022-08-01T09:27:15.517Z,56.30
2022-08-01T09:30:32.454Z,56.50
2022-08-01T09:34:15.495Z,55.20
2022-08-01T09:37:18.539Z,55.20
2022-08-01T09:40:29.614Z,54.70
2022-08-01T09:43:33.467Z,53.70
2022-08-01T09:46:34.580Z,52.90
2022-08-01T09:53:08.552Z,50.90
2022-08-01T09:56:23.507Z,50.50
2022-08-01T10:00:01.589Z,50.70
2022-08-01T10:03:44.501Z,51.00
2022-08-01T10:06:58.295Z,50.70
2022-08-01T10:10:09.674Z,50.10
2022-08-01T10:13:19.591Z,50.50
2022-08-01T10:16:26.549Z,50.80
2022-08-01T10:19:44.698Z,50.40
2022-08-01T10:22:54.536Z,50.20
2022-08-01T10:25:58.452Z,49.70
2022-08-01T10:29:45.596Z,50.10
2022-08-01T10:32:39.574Z,50.50
2022-08-01T10:35:47.916Z,49.80
2022-08-01T10:38:51.511Z,50.80
2022-08-01T10:42:05.843Z,50.70
2022-08-01T10:45:15.259Z,49.50
2022-08-01T10:48:40.481Z,49.30
2022-08-01T10:51:59.652Z,48.60
2022-08-01T10:55:07.492Z,48.70
2022-08-01T10:58:08.464Z,49.00
2022-08-01T11:01:44.717Z,49.00
2022-08-01T11:04:55.463Z,49.10
2022-08-01T11:08:03.496Z,48.60
2022-08-01T11:11:17.431Z,49.20
2022-08-01T11:14:26.298Z,48.10
2022-08-01T11:17:56.486Z,48.30
2022-08-01T11:21:56.880Z,47.40
2022-08-01T11:25:07.372Z,48.60
2022-08-01T11:28:35.547Z,47.80
2022-08-01T11:31:38.288Z,47.40
2022-08-01T11:35:09.489Z,48.00
2022-08-01T11:38:10.456Z,47.40
2022-08-01T11:41:48.460Z,47.30
2022-08-01T11:45:03.553Z,46.40
2022-08-01T11:48:05.475Z,46.30
2022-08-01T11:51:08.489Z,46.00
2022-08-01T11:54:15.515Z,45.50
2022-08-01T11:57:42.527Z,46.20
2022-08-01T12:00:47.105Z,45.30
2022-08-01T12:03:48.463Z,45.40
2022-08-01T12:06:51.035Z,45.60
2022-08-01T12:09:51.465Z,46.30
2022-08-01T12:12:58.660Z,45.90
2022-08-01T12:16:00.482Z,45.90
2022-08-01T12:19:01.503Z,46.10
2022-08-01T12:22:28.470Z,45.80
2022-08-01T12:25:31.488Z,44.90
2022-08-01T12:28:26.483Z,44.90
2022-08-01T12:31:27.506Z,44.60
2022-08-01T12:34:41.483Z,43.60
2022-08-01T12:37:42.504Z,42.50
2022-08-01T12:40:45.997Z,42.50
2022-08-01T12:43:46.515Z,43.10
2022-08-01T12:46:47.588Z,43.00
2022-08-01T12:49:52.536Z,42.70
2022-08-01T12:52:53.560Z,43.60
2022-08-01T12:56:03.557Z,43.50
2022-08-01T12:59:04.614Z,42.90
2022-08-01T13:02:09.559Z,42.50
2022-08-01T13:05:10.562Z,42.60
2022-08-01T13:08:11.596Z,42.80
2022-08-01T13:11:25.588Z,42.90
2022-08-01T13:14:42.531Z,42.30
2022-08-01T13:17:47.543Z,41.50
2022-08-01T13:20:50.527Z,41.40
2022-08-01T13:24:03.639Z,41.90
2022-08-01T13:27:07.533Z,42.20
2022-08-01T13:30:08.544Z,41.90
2022-08-01T13:33:13.581Z,43.00
2022-08-01T13:36:14.575Z,42.60
2022-08-01T13:39:33.606Z,42.10
2022-08-01T13:42:27.592Z,42.10
2022-08-01T13:45:28.554Z,42.90
2022-08-01T13:48:29.661Z,42.40
2022-08-01T13:51:30.553Z,42.70
2022-08-01T13:54:32.694Z,42.90
2022-08-01T13:57:36.334Z,43.20
2022-08-01T14:00:37.648Z,43.10
2022-08-01T14:03:38.569Z,43.40
2022-08-01T14:06:47.588Z,44.30
2022-08-01T14:10:04.962Z,44.00
2022-08-01T14:13:12.563Z,43.60
2022-08-01T14:16:13.570Z,43.80
2022-08-01T14:19:16.589Z,43.80
2022-08-01T14:22:17.583Z,43.60
2022-08-01T14:25:24.043Z,43.40
2022-08-01T14:28:41.601Z,43.30
2022-08-01T14:31:42.738Z,42.30
2022-08-01T14:34:43.665Z,42.90
2022-08-01T14:37:44.658Z,43.20
2022-08-01T14:40:45.602Z,42.20
2022-08-01T14:43:46.599Z,42.00
2022-08-01T14:46:58.043Z,41.90
2022-08-01T14:49:59.625Z,41.90
2022-08-01T14:53:00.739Z,41.60
2022-08-01T14:56:01.600Z,41.40
2022-08-01T14:59:02.647Z,42.10
2022-08-01T15:02:03.710Z,42.80
2022-08-01T15:05:05.611Z,43.00
2022-08-01T15:08:06.698Z,43.00
2022-08-01T15:11:08.611Z,43.50
2022-08-01T15:14:28.648Z,43.70
2022-08-01T15:17:40.684Z,44.10
2022-08-01T15:20:41.688Z,43.10
2022-08-01T15:23:42.656Z,43.50
2022-08-01T15:26:43.804Z,44.00
2022-08-01T15:29:44.658Z,43.90
2022-08-01T15:32:45.700Z,43.80
2022-08-01T15:35:46.641Z,44.50
2022-08-01T15:38:47.617Z,44.90
2022-08-01T15:41:48.627Z,44.70
2022-08-01T15:44:50.800Z,44.30
2022-08-01T15:47:51.716Z,43.80
2022-08-01T15:50:52.648Z,43.70
2022-08-01T15:53:53.708Z,43.20
2022-08-01T15:56:54.650Z,41.90
2022-08-01T15:59:55.705Z,42.50
2022-08-01T16:03:05.802Z,42.30
2022-08-01T16:06:06.752Z,42.70
2022-08-01T16:09:07.713Z,42.80
2022-08-01T16:12:09.217Z,43.20
2022-08-01T16:15:11.845Z,43.10
2022-08-01T16:18:12.708Z,43.00
2022-08-01T16:21:14.730Z,43.60
2022-08-01T16:24:15.697Z,43.70
2022-08-01T16:27:16.899Z,43.30
2022-08-01T16:30:18.647Z,43.60
2022-08-01T16:33:43.490Z,43.60
2022-08-01T16:36:40.694Z,43.90
2022-08-01T16:39:41.708Z,44.00
2022-08-01T16:42:42.885Z,44.30
2022-08-01T16:45:43.717Z,44.10
2022-08-01T16:48:44.718Z,44.30
2022-08-01T16:51:48.251Z,44.80
2022-08-01T16:54:48.694Z,45.00
2022-08-01T16:57:49.700Z,45.20
2022-08-01T17:00:56.510Z,45.90
2022-08-01T17:04:01.614Z,46.00
2022-08-01T17:07:02.893Z,45.90
2022-08-01T17:10:03.704Z,46.10
2022-08-01T17:13:04.779Z,46.50
2022-08-01T17:16:05.760Z,47.00
2022-08-01T17:19:06.717Z,47.40
2022-08-01T17:22:07.784Z,47.70
2022-08-01T17:25:08.774Z,47.70
2022-08-01T17:28:16.718Z,47.70
2022-08-01T17:31:17.730Z,48.00
2022-08-01T17:34:18.718Z,48.10
2022-08-01T17:37:19.715Z,47.90
2022-08-01T17:40:39.567Z,47.90
2022-08-01T17:43:40.798Z,47.80
2022-08-01T17:46:41.755Z,47.70
2022-08-01T17:49:54.642Z,48.10
2022-08-01T17:52:55.774Z,48.50
2022-08-01T17:55:58.174Z,48.70
2022-08-01T17:58:58.783Z,49.00
2022-08-01T18:01:59.781Z,49.30
2022-08-01T18:05:00.907Z,49.80
2022-08-01T18:08:02.587Z,50.20
2022-08-01T18:11:03.867Z,50.90
2022-08-01T18:14:04.832Z,51.90
2022-08-01T18:17:07.005Z,52.20
2022-08-01T18:20:09.777Z,53.20
2022-08-01T18:23:16.837Z,54.10
2022-08-01T18:26:18.813Z,55.30
2022-08-01T18:29:48.120Z,56.80
2022-08-01T18:32:46.905Z,58.20
2022-08-01T18:35:52.557Z,59.60
2022-08-01T18:38:58.315Z,60.90
2022-08-01T18:41:58.791Z,62.10
2022-08-01T18:44:59.837Z,62.70
2022-08-01T18:48:01.779Z,63.90
2022-08-01T18:51:02.917Z,65.40
2022-08-01T18:54:04.920Z,66.80
2022-08-01T18:57:05.967Z,67.90
2022-08-01T19:00:06.837Z,69.30
2022-08-01T19:03:07.875Z,70.60
2022-08-01T19:06:08.821Z,72.30
2022-08-01T19:09:09.877Z,73.40
2022-08-01T19:12:10.941Z,74.40
2022-08-01T19:15:12.026Z,75.30
2022-08-01T19:18:12.832Z,76.20
2022-08-01T19:21:13.964Z,76.80
2022-08-01T19:24:24.146Z,77.70
2022-08-01T19:27:27.823Z,78.10
2022-08-01T19:30:30.832Z,78.80
2022-08-01T19:33:32.868Z,79.70
2022-08-01T19:36:34.793Z,80.00
2022-08-01T19:39:37.845Z,80.40
2022-08-01T19:42:39.796Z,80.60
2022-08-01T19:45:43.843Z,80.90
2022-08-01T19:48:53.568Z,81.20
2022-08-01T19:52:05.865Z,81.70
2022-08-01T19:55:10.885Z,81.90
2022-08-01T19:58:28.242Z,82.50
2022-08-01T20:01:28.888Z,82.70
2022-08-01T20:04:30.893Z,82.90
2022-08-01T20:07:31.892Z,83.20
2022-08-01T20:10:36.814Z,83.40
2022-08-01T20:13:39.414Z,83.90
2022-08-01T20:16:34.894Z,84.30
2022-08-01T20:19:36.861Z,84.80
2022-08-01T20:22:40.889Z,85.10
2022-08-01T20:25:43.908Z,85.30
2022-08-01T20:28:48.905Z,85.60
2022-08-01T20:31:53.061Z,85.80
2022-08-01T20:34:54.843Z,85.90
2022-08-01T20:38:03.787Z,86.20
2022-08-01T20:41:10.021Z,86.40
2022-08-01T20:44:14.985Z,86.40
2022-08-01T20:47:18.905Z,86.40
2022-08-01T20:50:54.118Z,86.60
2022-08-01T20:53:59.925Z,86.70
2022-08-01T20:57:21.865Z,86.60
2022-08-01T21:00:23.949Z,86.80
2022-08-01T21:03:32.917Z,86.70
2022-08-01T21:06:39.857Z,86.70
2022-08-01T21:09:43.923Z,86.60
2022-08-01T21:13:19.056Z,86.60
2022-08-01T21:16:25.959Z,86.60
2022-08-01T21:19:29.927Z,86.50
2022-08-01T21:22:36.874Z,86.40
2022-08-01T21:25:43.936Z,86.50
2022-08-01T21:28:54.701Z,86.50
2022-08-01T21:32:17.887Z,86.40
2022-08-01T21:35:19.946Z,86.50
2022-08-01T21:38:20.880Z,86.40
2022-08-01T21:42:05.372Z,86.20
2022-08-01T21:44:44.969Z,86.10
2022-08-01T21:47:46.061Z,86.10
2022-08-01T21:51:01.919Z,86.10
2022-08-01T21:54:12.884Z,86.10
2022-08-01T21:57:25.945Z,86.00
2022-08-01T22:00:29.899Z,86.00
2022-08-01T22:03:34.075Z,86.20
2022-08-01T22:06:37.905Z,86.20
2022-08-01T22:09:40.077Z,86.10
2022-08-01T22:12:41.891Z,86.30
2022-08-01T22:15:45.436Z,86.50
2022-08-01T22:18:48.939Z,86.60
2022-08-01T22:21:50.973Z,86.90
2022-08-01T22:24:53.901Z,86.90
2022-08-01T22:28:07.773Z,86.90
2022-08-01T22:31:13.084Z,87.00
2022-08-01T22:34:14.970Z,87.10
2022-08-01T22:37:16.080Z,87.20
2022-08-01T22:40:37.139Z,87.10
2022-08-01T22:43:39.003Z,87.30
2022-08-01T22:46:54.987Z,87.30
2022-08-01T22:50:07.987Z,87.30
2022-08-01T22:53:24.992Z,87.20
2022-08-01T22:56:25.995Z,87.20
2022-08-01T22:59:49.933Z,87.20
2022-08-01T23:02:54.097Z,87.20
2022-08-01T23:06:08.927Z,87.10
2022-08-01T23:09:09.947Z,87.10
2022-08-01T23:12:11.299Z,87.10
2022-08-01T23:15:13.999Z,87.20
2022-08-01T23:18:17.114Z,87.50
2022-08-01T23:21:19.024Z,87.60
2022-08-01T23:24:14.195Z,87.70
2022-08-01T23:27:51.319Z,87.60
2022-08-01T23:30:49.941Z,87.80
2022-08-01T23:33:51.089Z,87.80
2022-08-01T23:36:51.982Z,87.80
2022-08-01T23:39:52.950Z,88.00
2022-08-01T23:42:53.948Z,88.20
2022-08-01T23:46:04.428Z,88.50
2022-08-01T23:49:06.100Z,88.70
2022-08-01T23:52:06.947Z,88.90
2022-08-01T23:55:13.166Z,89.00
2022-08-01T23:58:15.960Z,89.30
